Cumberland, Maine
Current Conditions -  °F | °C
As of 6:51 PM on Thursday 18 Dec 2014 (Local Time) from KPWM Reporting Station
Broken Clouds Broken Clouds  
Wind Chill: 29°   Ceiling: 11000
Heat Index: 37°   Visibility: 10mi
Dew Point: 27°   Wind: 13mph
Humidity: 67%   Direction: 350°N
Pressure: 29.79"   Gusts: NA
Location:  43.7981°N, 70.2656°W
Report Text: KPWM 182351Z 35011KT 10SM SCT034 BKN110 03/M03 A2979 RMK AO2 SLP087 T00281028 10067 20028 52020
Loading
Personal Weather Stations






























Interactive Weather Map New forecast layout! Learn more

10-Day Weather Forecast

Advertisements
Track Severe Weather on mobile